»·PEaware :: N53210 KVNY-KSNA

N53210 :: KVNY-KSNA

FLIGHT INFORMATION

Flight Status: Arrived
Operator: Privately registered:
United States
More flights under this callsign
Pilot: Anonymous 18558 (18558)
Aircraft: CESSNA 172 SKYHAWK
(C172)
More flights by this aircraft type
Origin: KVNY Van Nuys
United States
Destination: KSNA John Wayne-Orange Co
United States
More flights between these airports :: More routes between these airports
Route: +
File this flight plan on PilotEdge
Remarks: CAT 10
Altitude:
(Current/Filed)
2,500ft
Speed:
(Current/Filed)
0kts
Departed: 15-Apr-18 12:58 PM
Arrived: 15-Apr-18 02:14 PM
Distance/Time
Traveled:
44nm/1:15
Distance/Time
To Go:
Arrived

Flight Plot

Page will automatically refresh every two minutes.


Map Options




Map Legend


Flown Route
Filed Route
Departure Airport
Arrival Airport
Navaid (VOR, NDB)
Fix

Horizontal Profiles

Position Reports

Time Latitude Longitude Heading Altitude Ground
Speed
15-Apr-18 12:47 34.207601 -118.486998 278 806ft 0kts
15-Apr-18 12:48 34.207601 -118.486998 278 806ft 0kts
15-Apr-18 12:49 34.207601 -118.486998 278 806ft 0kts
15-Apr-18 12:50 34.207665 -118.487598 276 806ft 14kts
15-Apr-18 12:51 34.214524 -118.488783 357 806ft 25kts
15-Apr-18 12:52 34.218722 -118.489474 328 806ft 0kts
15-Apr-18 12:53 34.218721 -118.489474 329 806ft 0kts
15-Apr-18 12:54 34.218721 -118.489474 329 806ft 0kts
15-Apr-18 12:55 34.218721 -118.489474 329 806ft 0kts
15-Apr-18 12:56 34.218635 -118.489973 175 806ft 0kts
15-Apr-18 12:57 34.208503 -118.488977 175 982ft 87kts
15-Apr-18 12:58 34.187994 -118.497975 232 1926ft 86kts
15-Apr-18 12:59 34.174506 -118.520779 195 2864ft 79kts
15-Apr-18 13:00 34.151996 -118.516788 181 3665ft 85kts
15-Apr-18 13:01 34.124709 -118.516171 175 4261ft 99kts
15-Apr-18 13:02 34.101978 -118.523788 132 4636ft 121kts
15-Apr-18 13:03 34.077465 -118.500429 160 3631ft 121kts
15-Apr-18 13:04 34.057285 -118.503656 307 3387ft 69kts
15-Apr-18 13:05 34.058413 -118.495898 152 3450ft 62kts
15-Apr-18 13:06 34.040486 -118.483069 176 3527ft 101kts
15-Apr-18 13:07 34.017906 -118.472509 151 3355ft 70kts
15-Apr-18 13:08 34.000701 -118.465337 172 3391ft 63kts
15-Apr-18 13:09 33.990387 -118.459949 150 3416ft 61kts
15-Apr-18 13:10 33.801601 -118.341420 218 105ft 0kts
15-Apr-18 13:11 33.801601 -118.341420 218 105ft 0kts
15-Apr-18 13:12 33.801601 -118.341420 218 105ft 0kts
15-Apr-18 13:13 33.801601 -118.341420 218 105ft 0kts
15-Apr-18 13:14 33.801601 -118.341420 218 105ft 0kts
15-Apr-18 13:15 34.199347 -118.490901 90 806ft 0kts
15-Apr-18 13:16 34.199347 -118.490901 90 806ft 0kts
15-Apr-18 13:17 34.199472 -118.490704 36 806ft 12kts
15-Apr-18 13:18 34.205243 -118.491114 355 806ft 34kts
15-Apr-18 13:19 34.217182 -118.492249 0 806ft 30kts
15-Apr-18 13:20 34.218700 -118.492160 58 806ft 0kts
15-Apr-18 13:21 34.218700 -118.492160 58 806ft 0kts
15-Apr-18 13:22 34.217632 -118.491098 174 806ft 34kts
15-Apr-18 13:23 34.196694 -118.490259 180 1568ft 81kts
15-Apr-18 13:24 34.189391 -118.512864 269 2030ft 77kts
15-Apr-18 13:25 34.180467 -118.529793 163 1943ft 78kts
15-Apr-18 13:26 34.160390 -118.521806 172 2368ft 78kts
15-Apr-18 13:27 34.139026 -118.519822 190 3010ft 77kts
15-Apr-18 13:28 34.117062 -118.518565 163 3410ft 87kts
15-Apr-18 13:29 34.093826 -118.509953 153 3492ft 101kts
15-Apr-18 13:30 34.066404 -118.495277 162 3425ft 102kts
15-Apr-18 13:31 34.041069 -118.484077 158 3431ft 96kts
15-Apr-18 13:32 34.014046 -118.470425 155 3474ft 108kts
15-Apr-18 13:33 33.985958 -118.456958 143 3473ft 107kts
15-Apr-18 13:34 33.985806 -118.424042 62 3443ft 108kts
15-Apr-18 13:35 33.976856 -118.409913 235 3424ft 82kts
15-Apr-18 13:36 33.985744 -118.434037 314 3449ft 87kts
15-Apr-18 13:37 34.002496 -118.451886 322 3398ft 74kts
15-Apr-18 13:38 34.018741 -118.462484 342 3325ft 59kts
15-Apr-18 13:39 34.035453 -118.466660 350 3379ft 71kts
15-Apr-18 13:40 34.053595 -118.469605 353 3395ft 60kts
15-Apr-18 13:41 34.072071 -118.468869 2 3733ft 77kts
15-Apr-18 13:42 34.092525 -118.470079 349 4543ft 78kts
15-Apr-18 13:43 34.112875 -118.478164 336 5321ft 79kts
15-Apr-18 13:44 34.133666 -118.491465 311 5471ft 85kts
15-Apr-18 13:45 34.124791 -118.516384 220 5469ft 87kts
15-Apr-18 13:46 34.101798 -118.512778 156 5487ft 104kts
15-Apr-18 13:47 34.072957 -118.498894 158 5437ft 115kts
15-Apr-18 13:48 34.043213 -118.484799 158 5435ft 114kts
15-Apr-18 13:49 34.018478 -118.472942 158 5436ft 116kts
15-Apr-18 13:50 33.988318 -118.458402 158 5435ft 117kts
15-Apr-18 13:51 33.957887 -118.443715 158 5435ft 117kts
15-Apr-18 13:52 33.927204 -118.430608 169 5455ft 115kts
15-Apr-18 13:53 33.901112 -118.398059 121 5435ft 116kts
15-Apr-18 13:54 33.877757 -118.371137 137 5435ft 117kts
15-Apr-18 13:55 33.857702 -118.349135 137 5435ft 117kts
15-Apr-18 13:56 33.833482 -118.322591 137 5435ft 117kts
15-Apr-18 13:57 33.809287 -118.296100 137 5435ft 117kts
15-Apr-18 13:58 33.785124 -118.269643 137 5435ft 117kts
15-Apr-18 13:59 33.761203 -118.243531 137 5434ft 110kts
15-Apr-18 14:00 33.741002 -118.221516 137 5437ft 91kts
15-Apr-18 14:01 33.728382 -118.194790 96 5434ft 93kts
15-Apr-18 14:02 33.724347 -118.164154 100 5436ft 98kts
15-Apr-18 14:03 33.719069 -118.131159 100 5436ft 103kts
15-Apr-18 14:04 33.717226 -118.098663 86 5435ft 95kts
15-Apr-18 14:05 33.718998 -118.065369 85 5436ft 108kts
15-Apr-18 14:06 33.720832 -118.030686 86 5434ft 92kts
15-Apr-18 14:07 33.722391 -117.998772 87 5275ft 100kts
15-Apr-18 14:08 33.723840 -117.965588 85 4544ft 102kts
15-Apr-18 14:09 33.724986 -117.932514 92 3718ft 106kts
15-Apr-18 14:10 33.719316 -117.898153 106 2631ft 106kts
15-Apr-18 14:11 33.712668 -117.867471 115 1771ft 79kts
15-Apr-18 14:12 33.692465 -117.860306 178 870ft 81kts
15-Apr-18 14:13 33.678124 -117.868427 299 60ft 16kts
15-Apr-18 14:14 33.678197 -117.868582 294 60ft 1kts
15-Apr-18 14:15 33.675942 -117.871232 245 60ft 8kts
15-Apr-18 14:16 33.675851 -117.871191 134 60ft 0kts
15-Apr-18 14:17 33.675851 -117.871191 134 60ft 0kts
15-Apr-18 14:18 33.675851 -117.871191 134 60ft 0kts
15-Apr-18 14:19 33.675851 -117.871191 134 60ft 0kts
15-Apr-18 14:20 33.675851 -117.871191 134 60ft 0kts
15-Apr-18 14:21 33.675851 -117.871191 134 60ft 0kts
15-Apr-18 14:22 33.675851 -117.871191 134 60ft 0kts
15-Apr-18 14:23 33.675851 -117.871191 134 60ft 0kts
15-Apr-18 14:24 33.675851 -117.871191 134 60ft 0kts
15-Apr-18 14:25 33.675851 -117.871191 134 60ft 0kts
15-Apr-18 14:26 33.675851 -117.871191 134 60ft 0kts
15-Apr-18 14:27 33.675851 -117.871191 134 60ft 0kts

Navigation Log

Ident Type
1. KVNY Airport
2. KSNA Airport